createdAt,value
2022-11-28T00:00:21.037Z,5.94
2022-11-28T00:01:25.345Z,5.97
2022-11-28T00:02:22.205Z,5.55
2022-11-28T00:03:19.195Z,3.74
2022-11-28T00:04:16.269Z,5.34
2022-11-28T00:05:13.381Z,5.35
2022-11-28T00:06:10.627Z,4.96
2022-11-28T00:07:07.653Z,5.49
2022-11-28T00:08:04.859Z,5.01
2022-11-28T00:09:01.634Z,5.80
2022-11-28T00:09:58.404Z,5.88
2022-11-28T00:10:55.182Z,5.50
2022-11-28T00:11:52.129Z,5.76
2022-11-28T00:12:48.887Z,5.35
2022-11-28T00:13:47.056Z,5.52
2022-11-28T00:14:44.026Z,5.87
2022-11-28T00:15:41.145Z,5.93
2022-11-28T00:16:38.076Z,5.42
2022-11-28T00:17:34.849Z,6.15
2022-11-28T00:18:32.659Z,4.63
2022-11-28T00:19:29.509Z,5.80
2022-11-28T00:20:26.243Z,5.91
2022-11-28T00:21:23.502Z,5.29
2022-11-28T00:22:20.498Z,4.95
2022-11-28T00:23:17.377Z,5.43
2022-11-28T00:24:14.183Z,5.66
2022-11-28T00:25:11.003Z,4.85
2022-11-28T00:26:13.725Z,5.14
2022-11-28T00:27:10.572Z,4.51
2022-11-28T00:28:07.346Z,5.46
2022-11-28T00:29:06.092Z,5.05
2022-11-28T00:30:03.079Z,3.84
2022-11-28T00:31:00.215Z,5.32
2022-11-28T00:31:56.965Z,4.29
2022-11-28T00:32:53.730Z,5.33
2022-11-28T00:33:51.802Z,5.04
2022-11-28T00:34:48.670Z,4.90
2022-11-28T00:35:45.471Z,5.06
2022-11-28T00:36:45.456Z,5.27
2022-11-28T00:37:42.174Z,5.50
2022-11-28T00:38:40.405Z,5.26
2022-11-28T00:39:37.219Z,3.71
2022-11-28T00:40:34.087Z,4.81
2022-11-28T00:41:33.939Z,4.63
2022-11-28T00:42:30.726Z,5.01
2022-11-28T00:43:27.989Z,5.50
2022-11-28T00:44:24.861Z,4.97
2022-11-28T00:45:21.717Z,5.26
2022-11-28T00:46:20.166Z,5.01
2022-11-28T00:47:16.964Z,4.75
2022-11-28T00:48:13.647Z,5.47
2022-11-28T00:49:10.583Z,5.37
2022-11-28T00:50:07.907Z,4.90
2022-11-28T00:51:10.720Z,4.34
2022-11-28T00:52:07.907Z,4.53
2022-11-28T00:53:04.707Z,4.91
2022-11-28T00:54:05.887Z,5.10
2022-11-28T00:55:02.742Z,4.73
2022-11-28T00:55:59.556Z,4.71
2022-11-28T00:56:56.339Z,5.20
2022-11-28T00:57:55.311Z,5.38
2022-11-28T00:58:52.824Z,4.93
2022-11-28T00:59:49.647Z,5.46
2022-11-28T01:00:46.418Z,4.26
2022-11-28T01:01:44.328Z,4.43
2022-11-28T01:02:41.303Z,4.86
2022-11-28T01:03:39.463Z,4.49
2022-11-28T01:04:36.187Z,4.44
2022-11-28T01:05:32.930Z,4.54
2022-11-28T01:06:33.825Z,5.23
2022-11-28T01:07:33.373Z,5.53
2022-11-28T01:08:30.215Z,5.43
2022-11-28T01:09:27.032Z,5.45
2022-11-28T01:10:23.893Z,5.27
2022-11-28T01:11:21.754Z,5.46
2022-11-28T01:12:18.452Z,5.78
2022-11-28T01:13:15.212Z,5.33
2022-11-28T01:14:13.494Z,5.39
2022-11-28T01:15:12.997Z,5.57
2022-11-28T01:16:10.776Z,5.01
2022-11-28T01:17:07.645Z,3.70
2022-11-28T01:18:04.598Z,3.22
2022-11-28T01:19:01.547Z,4.89
2022-11-28T01:19:58.359Z,5.41
2022-11-28T01:20:55.063Z,4.99
2022-11-28T01:21:51.834Z,4.59
2022-11-28T01:22:48.698Z,4.62
2022-11-28T01:23:45.808Z,4.48
2022-11-28T01:24:42.805Z,4.87
2022-11-28T01:25:39.818Z,5.44
2022-11-28T01:26:39.563Z,5.44
2022-11-28T01:27:36.324Z,4.42
2022-11-28T01:28:34.287Z,4.81
2022-11-28T01:29:30.974Z,5.08
2022-11-28T01:30:28.402Z,4.74
2022-11-28T01:31:28.127Z,4.95
2022-11-28T01:32:24.952Z,5.11
2022-11-28T01:33:21.686Z,3.55
2022-11-28T01:34:19.167Z,4.84
2022-11-28T01:35:16.125Z,4.94
2022-11-28T01:36:14.638Z,4.87
2022-11-28T01:37:11.518Z,5.19
2022-11-28T01:38:08.315Z,5.08
2022-11-28T01:39:05.167Z,5.46
2022-11-28T01:40:02.011Z,5.35
2022-11-28T01:40:59.014Z,5.62
2022-11-28T01:41:55.785Z,5.50
2022-11-28T01:42:52.570Z,5.62
2022-11-28T01:44:06.890Z,5.20
2022-11-28T01:45:23.234Z,5.52
2022-11-28T01:46:20.022Z,5.58
2022-11-28T01:47:23.823Z,4.25
2022-11-28T01:48:29.326Z,5.26
2022-11-28T01:49:34.778Z,4.13
2022-11-28T01:50:35.110Z,4.96
2022-11-28T01:51:33.625Z,4.75
2022-11-28T01:52:30.501Z,4.96
2022-11-28T01:53:30.613Z,4.56
2022-11-28T01:54:31.253Z,4.47
2022-11-28T01:55:33.570Z,4.30
2022-11-28T01:56:58.820Z,3.69
2022-11-28T01:57:56.391Z,5.29
2022-11-28T01:59:02.017Z,5.33
2022-11-28T02:00:09.111Z,5.22
2022-11-28T02:01:07.253Z,3.94
2022-11-28T02:02:14.758Z,4.90
2022-11-28T02:03:34.870Z,4.57
2022-11-28T02:04:34.279Z,5.41
2022-11-28T02:05:31.507Z,5.10
2022-11-28T02:06:33.254Z,5.47
2022-11-28T02:07:30.142Z,5.15
2022-11-28T02:08:27.013Z,5.45
2022-11-28T02:09:23.997Z,5.50
2022-11-28T02:10:28.063Z,3.77
2022-11-28T02:11:43.084Z,4.53
2022-11-28T02:13:18.308Z,4.35
2022-11-28T02:14:29.929Z,5.20
2022-11-28T02:15:41.656Z,5.52
2022-11-28T02:17:16.755Z,5.66
2022-11-28T02:18:39.586Z,5.72
2022-11-28T02:19:51.569Z,5.30
2022-11-28T02:21:11.449Z,4.79
2022-11-28T02:22:30.570Z,5.40
2022-11-28T02:23:55.020Z,5.34
2022-11-28T02:25:35.716Z,5.68
2022-11-28T02:26:50.914Z,5.72
2022-11-28T02:28:21.466Z,5.50
2022-11-28T02:29:48.964Z,5.52
2022-11-28T02:31:22.814Z,4.91
2022-11-28T02:32:40.282Z,5.40
2022-11-28T02:34:04.458Z,5.07
2022-11-28T02:35:35.104Z,4.80
2022-11-28T02:36:34.260Z,5.08
2022-11-28T02:37:59.658Z,4.63
2022-11-28T02:39:05.460Z,5.11
2022-11-28T02:40:24.926Z,5.42
2022-11-28T02:41:24.642Z,5.66
2022-11-28T02:42:38.903Z,4.75
2022-11-28T02:44:04.482Z,4.96
2022-11-28T02:45:15.120Z,5.53
2022-11-28T02:46:44.898Z,4.79
2022-11-28T02:47:54.998Z,5.48
2022-11-28T02:49:08.081Z,5.59
2022-11-28T02:50:07.612Z,5.69
2022-11-28T02:51:40.985Z,5.70
2022-11-28T02:52:45.770Z,5.58
2022-11-28T02:53:45.919Z,5.34
2022-11-28T02:54:45.565Z,5.04
2022-11-28T02:55:44.196Z,4.46
2022-11-28T02:56:51.434Z,4.11
2022-11-28T02:57:52.283Z,4.38
2022-11-28T02:58:49.076Z,4.86
2022-11-28T02:59:49.252Z,4.67
2022-11-28T03:00:51.072Z,4.85
2022-11-28T03:01:48.273Z,4.49
2022-11-28T03:02:55.894Z,4.26
2022-11-28T03:03:52.556Z,5.26
2022-11-28T03:05:13.289Z,5.22
2022-11-28T03:06:18.837Z,5.21
2022-11-28T03:07:21.516Z,5.18
2022-11-28T03:08:42.522Z,4.50
2022-11-28T03:10:00.838Z,5.19
2022-11-28T03:11:36.889Z,4.57
2022-11-28T03:12:56.581Z,4.25
2022-11-28T03:14:05.830Z,3.97
2022-11-28T03:15:07.503Z,4.98
2022-11-28T03:16:25.038Z,3.75
2022-11-28T03:17:28.361Z,5.30
2022-11-28T03:18:48.966Z,5.52
2022-11-28T03:20:42.736Z,5.57
2022-11-28T03:22:03.127Z,5.31
2022-11-28T03:23:08.794Z,5.78
2022-11-28T03:24:22.305Z,5.57
2022-11-28T03:25:31.035Z,5.73
2022-11-28T03:26:35.088Z,5.85
2022-11-28T03:27:38.920Z,5.87
2022-11-28T03:28:45.403Z,5.69
2022-11-28T03:29:49.940Z,5.77
2022-11-28T03:31:08.830Z,5.79
2022-11-28T03:32:24.627Z,5.51
2022-11-28T03:33:25.500Z,5.02
2022-11-28T03:34:28.823Z,5.78
2022-11-28T03:35:33.334Z,5.95
2022-11-28T03:36:36.271Z,5.19
2022-11-28T03:37:40.221Z,5.66
2022-11-28T03:38:45.444Z,5.90
2022-11-28T03:39:49.832Z,5.88
2022-11-28T03:40:53.348Z,5.87
2022-11-28T03:41:59.698Z,5.81
2022-11-28T03:43:05.309Z,5.44
2022-11-28T03:44:08.707Z,5.51
2022-11-28T03:45:08.213Z,5.80
2022-11-28T03:46:11.470Z,5.58
2022-11-28T03:47:10.344Z,5.61
2022-11-28T03:48:16.222Z,5.86
2022-11-28T03:49:20.296Z,5.57
2022-11-28T03:50:23.583Z,5.91
2022-11-28T03:51:28.917Z,5.57
2022-11-28T03:52:32.025Z,5.77
2022-11-28T03:53:42.561Z,5.83
2022-11-28T03:54:59.486Z,5.96
2022-11-28T03:56:15.316Z,4.78
2022-11-28T03:57:30.715Z,5.61
2022-11-28T03:59:05.775Z,5.12
2022-11-28T04:00:08.068Z,5.53
2022-11-28T04:01:07.283Z,5.79
2022-11-28T04:02:18.862Z,5.06
2022-11-28T04:03:18.669Z,6.00
2022-11-28T04:04:21.299Z,5.77
2022-11-28T04:05:47.854Z,5.73
2022-11-28T04:07:03.575Z,5.56
2022-11-28T04:08:16.192Z,5.95
2022-11-28T04:09:21.856Z,5.50
2022-11-28T04:10:56.835Z,5.73
2022-11-28T04:12:22.033Z,5.76
2022-11-28T04:13:26.488Z,5.43
2022-11-28T04:14:42.068Z,5.96
2022-11-28T04:15:39.080Z,6.05
2022-11-28T04:17:07.336Z,3.05
2022-11-28T04:18:24.839Z,5.77
2022-11-28T04:19:41.442Z,6.05
2022-11-28T04:20:53.721Z,5.02
2022-11-28T04:21:59.297Z,5.50
2022-11-28T04:23:02.691Z,5.21
2022-11-28T04:24:14.568Z,5.46
2022-11-28T04:25:16.758Z,5.68
2022-11-28T04:26:34.549Z,5.20
2022-11-28T04:27:38.858Z,5.78
2022-11-28T04:28:39.429Z,6.10
2022-11-28T04:29:44.044Z,5.84
2022-11-28T04:30:46.211Z,5.53
2022-11-28T04:31:46.428Z,5.99
2022-11-28T04:32:55.684Z,5.73
2022-11-28T04:34:03.732Z,5.77
2022-11-28T04:35:12.376Z,5.69
2022-11-28T04:36:18.776Z,4.93
2022-11-28T04:37:17.916Z,5.83
2022-11-28T04:38:16.007Z,4.93
2022-11-28T04:39:18.335Z,5.89
2022-11-28T04:40:17.956Z,5.72
2022-11-28T04:41:22.023Z,5.33
2022-11-28T04:42:43.143Z,5.46
2022-11-28T04:43:48.467Z,3.91
2022-11-28T04:44:57.392Z,5.05
2022-11-28T04:46:04.495Z,4.82
2022-11-28T04:47:01.701Z,4.95
2022-11-28T04:47:58.929Z,5.68
2022-11-28T04:48:55.913Z,3.35
2022-11-28T04:49:55.076Z,5.92
2022-11-28T04:51:19.288Z,5.89
2022-11-28T04:52:29.944Z,5.72
2022-11-28T04:53:43.040Z,5.87
2022-11-28T04:55:02.994Z,5.71
2022-11-28T04:56:08.345Z,5.80
2022-11-28T04:57:35.707Z,5.91
2022-11-28T04:58:42.074Z,4.55
2022-11-28T04:59:41.345Z,5.88
2022-11-28T05:00:40.781Z,6.10
2022-11-28T05:01:41.502Z,5.54
2022-11-28T05:02:41.580Z,4.93
2022-11-28T05:03:42.736Z,5.99
2022-11-28T05:04:58.533Z,6.25
2022-11-28T05:05:55.213Z,6.25
2022-11-28T05:07:08.219Z,6.13
2022-11-28T05:08:05.350Z,5.88
2022-11-28T05:09:02.893Z,6.06
2022-11-28T05:09:59.804Z,6.16
2022-11-28T05:10:56.533Z,5.05
2022-11-28T05:11:53.241Z,5.97
2022-11-28T05:12:50.034Z,6.15
2022-11-28T05:13:47.190Z,5.84
2022-11-28T05:14:44.164Z,4.82
2022-11-28T05:15:41.143Z,5.79
2022-11-28T05:16:37.981Z,5.82
2022-11-28T05:17:40.523Z,5.64
2022-11-28T05:18:39.209Z,5.36
2022-11-28T05:19:35.943Z,5.90
2022-11-28T05:20:33.270Z,5.43
2022-11-28T05:21:30.067Z,4.96
2022-11-28T05:22:26.776Z,6.00
2022-11-28T05:23:23.536Z,5.90
2022-11-28T05:24:22.464Z,4.23
2022-11-28T05:25:19.476Z,5.59
2022-11-28T05:26:21.291Z,5.73
2022-11-28T05:27:18.228Z,6.03
2022-11-28T05:28:14.966Z,5.86
2022-11-28T05:29:11.789Z,6.11
2022-11-28T05:30:10.608Z,4.30
2022-11-28T05:31:07.425Z,5.82
2022-11-28T05:32:04.901Z,5.75
2022-11-28T05:33:02.186Z,5.84
2022-11-28T05:33:58.901Z,5.67
2022-11-28T05:34:55.599Z,5.13
2022-11-28T05:35:52.301Z,4.76
2022-11-28T05:36:49.099Z,5.73
2022-11-28T05:37:45.834Z,5.98
2022-11-28T05:38:44.205Z,5.75
2022-11-28T05:39:41.356Z,5.42
2022-11-28T05:40:44.095Z,5.47
2022-11-28T05:41:40.858Z,5.52
2022-11-28T05:42:37.603Z,6.17
2022-11-28T05:43:34.534Z,6.22
2022-11-28T05:44:31.689Z,6.03
2022-11-28T05:45:28.428Z,6.24
2022-11-28T05:46:26.458Z,6.18
2022-11-28T05:47:23.994Z,6.09
2022-11-28T05:48:20.819Z,6.05
2022-11-28T05:49:17.514Z,5.98
2022-11-28T05:50:14.436Z,5.74
2022-11-28T05:51:11.224Z,6.18
2022-11-28T05:52:08.472Z,5.53
2022-11-28T05:53:05.264Z,6.04
2022-11-28T05:54:02.014Z,6.10
2022-11-28T05:55:05.064Z,5.05
2022-11-28T05:56:20.490Z,5.86
2022-11-28T05:57:17.235Z,5.26
2022-11-28T05:58:16.781Z,6.05
2022-11-28T05:59:17.182Z,5.70
2022-11-28T06:00:17.042Z,6.15
2022-11-28T06:01:17.005Z,6.09
2022-11-28T06:02:16.439Z,5.97
2022-11-28T06:03:13.212Z,6.18
2022-11-28T06:04:12.734Z,6.04
2022-11-28T06:05:40.400Z,5.86
2022-11-28T06:06:36.712Z,5.04
2022-11-28T06:07:37.935Z,6.16
2022-11-28T06:08:37.265Z,5.34
2022-11-28T06:09:34.011Z,6.19
2022-11-28T06:10:36.399Z,5.37
2022-11-28T06:11:35.655Z,5.61
2022-11-28T06:12:32.633Z,6.02
2022-11-28T06:13:31.671Z,6.02
2022-11-28T06:14:28.491Z,5.52
2022-11-28T06:15:28.027Z,5.12
2022-11-28T06:16:29.777Z,5.20
2022-11-28T06:17:26.546Z,4.99
2022-11-28T06:18:26.239Z,4.93
2022-11-28T06:19:27.525Z,5.95
2022-11-28T06:20:24.582Z,5.82
2022-11-28T06:21:25.163Z,5.71
2022-11-28T06:22:24.030Z,6.15
2022-11-28T06:23:20.878Z,6.20
2022-11-28T06:24:18.364Z,6.22
2022-11-28T06:25:15.623Z,6.20
2022-11-28T06:26:18.330Z,5.92
2022-11-28T06:27:15.370Z,5.87
2022-11-28T06:28:12.215Z,6.22
2022-11-28T06:29:09.011Z,5.84
2022-11-28T06:30:07.562Z,6.18
2022-11-28T06:31:14.454Z,6.13
2022-11-28T06:32:22.435Z,6.35
2022-11-28T06:33:22.369Z,6.02
2022-11-28T06:34:19.097Z,5.94
2022-11-28T06:35:15.855Z,6.34
2022-11-28T06:36:14.539Z,6.26
2022-11-28T06:37:12.503Z,6.30
2022-11-28T06:38:14.045Z,6.27
2022-11-28T06:39:15.286Z,5.33
2022-11-28T06:40:16.835Z,4.75
2022-11-28T06:41:16.919Z,4.67
2022-11-28T06:42:18.394Z,5.69
2022-11-28T06:43:15.147Z,6.10
2022-11-28T06:44:22.340Z,6.09
2022-11-28T06:45:21.407Z,6.34
2022-11-28T06:46:24.127Z,6.42
2022-11-28T06:47:23.381Z,6.02
2022-11-28T06:48:20.766Z,5.90
2022-11-28T06:49:20.367Z,5.92
2022-11-28T06:50:19.740Z,5.85
2022-11-28T06:51:19.840Z,5.86
2022-11-28T06:52:18.791Z,5.98
2022-11-28T06:53:15.590Z,5.69
2022-11-28T06:54:15.482Z,5.13
2022-11-28T06:55:12.206Z,4.98
2022-11-28T06:56:14.633Z,5.56
2022-11-28T06:57:14.375Z,5.20
2022-11-28T06:58:14.116Z,5.92
2022-11-28T06:59:14.577Z,5.76
2022-11-28T07:00:14.587Z,5.10
2022-11-28T07:01:20.324Z,4.94
2022-11-28T07:02:20.069Z,4.70
2022-11-28T07:03:19.615Z,4.99
2022-11-28T07:04:18.890Z,4.52
2022-11-28T07:05:19.064Z,4.51
2022-11-28T07:06:21.976Z,4.97
2022-11-28T07:07:24.425Z,5.04
2022-11-28T07:08:47.271Z,5.77
2022-11-28T07:09:44.337Z,5.96
2022-11-28T07:10:46.796Z,4.76
2022-11-28T07:11:46.219Z,5.74
2022-11-28T07:12:49.046Z,5.83
2022-11-28T07:13:52.669Z,5.78
2022-11-28T07:14:56.701Z,6.26
2022-11-28T07:16:00.669Z,6.20
2022-11-28T07:17:02.754Z,5.97
2022-11-28T07:18:01.889Z,6.14
2022-11-28T07:19:09.227Z,5.61
2022-11-28T07:21:43.194Z,6.15
2022-11-28T07:22:50.101Z,5.88
2022-11-28T07:23:47.733Z,5.55
2022-11-28T07:24:44.507Z,5.92
2022-11-28T07:25:45.582Z,6.08
2022-11-28T07:26:49.951Z,6.10
2022-11-28T07:27:52.465Z,5.91
2022-11-28T07:28:56.224Z,5.81
2022-11-28T07:29:57.023Z,6.35
2022-11-28T07:31:21.802Z,5.60
2022-11-28T07:32:21.008Z,5.67
2022-11-28T07:33:17.779Z,6.41
2022-11-28T07:34:18.682Z,3.74
2022-11-28T07:35:17.944Z,5.27
2022-11-28T07:36:26.691Z,5.10
2022-11-28T07:37:23.423Z,5.32
2022-11-28T07:38:25.013Z,4.81
2022-11-28T07:39:27.432Z,5.27
2022-11-28T07:40:29.206Z,6.23
2022-11-28T07:41:31.858Z,5.78
2022-11-28T07:42:40.683Z,5.27
2022-11-28T07:43:44.377Z,5.14
2022-11-28T07:44:41.102Z,4.55
2022-11-28T07:46:00.076Z,4.82
2022-11-28T07:47:03.033Z,4.58
2022-11-28T07:48:04.729Z,5.98
2022-11-28T07:49:04.441Z,5.70
2022-11-28T07:50:01.224Z,5.68
2022-11-28T07:51:00.442Z,5.92
2022-11-28T07:51:57.211Z,6.06
2022-11-28T07:52:56.094Z,5.65
2022-11-28T07:53:53.846Z,5.38
2022-11-28T07:54:58.403Z,4.54
2022-11-28T07:55:55.144Z,5.20
2022-11-28T07:58:11.520Z,4.95
2022-11-28T07:59:08.309Z,6.35
2022-11-28T08:00:05.724Z,5.57
2022-11-28T08:01:17.831Z,4.20
2022-11-28T08:02:28.339Z,5.80
2022-11-28T08:03:28.202Z,4.78
2022-11-28T08:04:25.015Z,6.04
2022-11-28T08:05:26.942Z,5.74
2022-11-28T08:06:28.132Z,5.97
2022-11-28T08:07:28.929Z,5.68
2022-11-28T08:08:25.835Z,5.76
2022-11-28T08:09:23.069Z,5.72
2022-11-28T08:10:28.891Z,5.31
2022-11-28T08:11:43.719Z,6.42
2022-11-28T08:12:46.933Z,6.34
2022-11-28T08:13:46.651Z,6.29
2022-11-28T08:14:45.920Z,5.54
2022-11-28T08:15:48.245Z,5.16
2022-11-28T08:16:54.317Z,5.78
2022-11-28T08:17:53.478Z,6.73
2022-11-28T08:18:52.243Z,5.76
2022-11-28T08:19:48.989Z,5.30
2022-11-28T08:20:45.778Z,4.83
2022-11-28T08:21:48.902Z,5.25
2022-11-28T08:22:48.774Z,5.75
2022-11-28T08:23:49.174Z,5.73
2022-11-28T08:24:45.979Z,5.49
2022-11-28T08:25:42.752Z,5.82
2022-11-28T08:26:39.589Z,6.07
2022-11-28T08:27:36.417Z,6.40
2022-11-28T08:28:34.121Z,5.97
2022-11-28T08:29:30.948Z,6.50
2022-11-28T08:30:28.130Z,6.10
2022-11-28T08:31:37.243Z,6.21
2022-11-28T08:32:34.044Z,5.87
2022-11-28T08:33:30.780Z,5.84
2022-11-28T08:34:27.523Z,4.80
2022-11-28T08:35:24.533Z,5.33
2022-11-28T08:36:21.853Z,5.20
2022-11-28T08:37:18.591Z,6.16
2022-11-28T08:38:15.391Z,6.51
2022-11-28T08:39:27.783Z,5.86
2022-11-28T08:40:24.745Z,6.23
2022-11-28T08:41:24.324Z,6.67
2022-11-28T08:42:21.726Z,6.91
2022-11-28T08:43:18.529Z,6.47
2022-11-28T08:44:16.251Z,6.84
2022-11-28T08:45:13.125Z,7.14
2022-11-28T08:46:13.253Z,7.22
2022-11-28T08:47:10.232Z,6.88
2022-11-28T08:48:07.202Z,7.16
2022-11-28T08:49:04.706Z,6.70
2022-11-28T08:50:02.178Z,5.39
2022-11-28T08:50:58.926Z,6.60
2022-11-28T08:51:55.752Z,6.07
2022-11-28T08:52:52.542Z,6.39
2022-11-28T08:53:52.690Z,6.37
2022-11-28T08:54:53.325Z,7.10
2022-11-28T08:55:50.412Z,7.18
2022-11-28T08:56:48.473Z,7.37
2022-11-28T08:57:45.203Z,7.31
2022-11-28T08:58:41.944Z,4.52
2022-11-28T08:59:38.746Z,7.33
2022-11-28T09:00:35.899Z,6.60
2022-11-28T09:01:32.868Z,6.65
2022-11-28T09:02:29.663Z,6.46
2022-11-28T09:03:26.640Z,6.33
2022-11-28T09:04:24.055Z,6.19
2022-11-28T09:05:20.850Z,6.28
2022-11-28T09:06:19.017Z,6.33
2022-11-28T09:07:15.764Z,6.74
2022-11-28T09:08:13.861Z,6.37
2022-11-28T09:09:10.754Z,7.04
2022-11-28T09:10:08.033Z,5.98
2022-11-28T09:11:08.126Z,6.63
2022-11-28T09:12:04.929Z,7.07
2022-11-28T09:13:01.646Z,7.18
2022-11-28T09:14:00.443Z,6.97
2022-11-28T09:14:57.129Z,7.20
2022-11-28T09:15:55.010Z,7.34
2022-11-28T09:16:52.107Z,6.71
2022-11-28T09:17:48.904Z,6.09
2022-11-28T09:18:45.748Z,5.82
2022-11-28T09:19:43.285Z,5.51
2022-11-28T09:20:41.187Z,5.93
2022-11-28T09:21:38.123Z,5.76
2022-11-28T09:22:34.837Z,6.15
2022-11-28T09:23:31.951Z,6.89
2022-11-28T09:24:28.936Z,6.76
2022-11-28T09:25:25.694Z,7.08
2022-11-28T09:26:25.355Z,7.26
2022-11-28T09:27:22.113Z,6.99
2022-11-28T09:28:18.841Z,7.18
2022-11-28T09:29:15.578Z,6.87
2022-11-28T09:30:12.723Z,5.29
2022-11-28T09:31:09.714Z,6.40
2022-11-28T09:32:09.191Z,6.47
2022-11-28T09:33:06.966Z,6.38
2022-11-28T09:34:04.914Z,6.91
2022-11-28T09:35:02.035Z,6.91
2022-11-28T09:35:58.950Z,7.07
2022-11-28T09:36:59.656Z,7.05
2022-11-28T09:37:59.194Z,7.11
2022-11-28T09:38:56.094Z,7.21
2022-11-28T09:40:11.945Z,6.99
2022-11-28T09:41:42.821Z,6.64
2022-11-28T09:42:44.132Z,6.98
2022-11-28T09:43:49.684Z,6.86
2022-11-28T09:45:01.489Z,5.97
2022-11-28T09:46:04.532Z,7.27
2022-11-28T09:47:10.499Z,6.67
2022-11-28T09:48:25.227Z,6.52
2022-11-28T09:49:45.572Z,6.76
2022-11-28T09:50:44.162Z,6.29
2022-11-28T09:51:49.375Z,7.04
2022-11-28T09:52:54.345Z,4.69
2022-11-28T09:54:11.604Z,6.94
2022-11-28T09:55:57.886Z,6.74
2022-11-28T09:56:57.124Z,6.40
2022-11-28T09:57:54.679Z,5.56
2022-11-28T09:58:57.909Z,6.19
2022-11-28T09:59:54.760Z,6.54
2022-11-28T10:01:11.050Z,6.91
2022-11-28T10:02:26.047Z,7.43
2022-11-28T10:03:36.224Z,6.44
2022-11-28T10:04:42.721Z,7.71
2022-11-28T10:05:58.886Z,7.69
2022-11-28T10:07:01.506Z,7.57
2022-11-28T10:08:16.052Z,7.81
2022-11-28T10:09:21.475Z,7.91
2022-11-28T10:10:48.956Z,7.39
2022-11-28T10:11:45.692Z,7.94
2022-11-28T10:12:52.877Z,6.98
2022-11-28T10:14:08.787Z,8.01
2022-11-28T10:15:20.805Z,7.99
2022-11-28T10:16:54.970Z,7.88
2022-11-28T10:18:19.162Z,8.22
2022-11-28T10:19:52.848Z,7.76
2022-11-28T10:20:47.221Z,8.11
2022-11-28T10:21:59.248Z,7.58
2022-11-28T10:23:25.232Z,7.31
2022-11-28T10:25:00.546Z,7.83
2022-11-28T10:26:13.007Z,7.63
2022-11-28T10:27:23.895Z,7.26
2022-11-28T10:28:41.347Z,7.18
2022-11-28T10:29:58.706Z,7.69
2022-11-28T10:31:53.996Z,7.84
2022-11-28T10:33:33.025Z,8.00
2022-11-28T10:34:48.864Z,7.66
2022-11-28T10:36:04.420Z,7.08
2022-11-28T10:37:18.056Z,7.29
2022-11-28T10:38:25.783Z,7.47
2022-11-28T10:39:26.631Z,7.45
2022-11-28T10:41:18.101Z,6.79
2022-11-28T10:42:28.637Z,7.66
2022-11-28T10:44:02.014Z,7.83
2022-11-28T10:45:22.538Z,7.37
2022-11-28T10:46:22.208Z,7.44
2022-11-28T10:47:37.330Z,7.70
2022-11-28T10:48:50.675Z,7.63
2022-11-28T10:50:19.426Z,7.26
2022-11-28T10:51:48.296Z,7.37
2022-11-28T10:52:59.052Z,5.55
2022-11-28T10:54:07.588Z,7.04
2022-11-28T10:55:34.379Z,7.19
2022-11-28T10:57:13.188Z,7.24
2022-11-28T10:58:35.237Z,7.41
2022-11-28T10:59:53.027Z,7.61
2022-11-28T11:01:00.930Z,7.38
2022-11-28T11:02:25.523Z,7.96
2022-11-28T11:03:40.519Z,7.00
2022-11-28T11:04:44.200Z,7.19
2022-11-28T11:05:46.859Z,7.21
2022-11-28T11:07:19.090Z,7.62
2022-11-28T11:08:30.626Z,7.70
2022-11-28T11:09:27.530Z,7.85
2022-11-28T11:10:59.306Z,7.66
2022-11-28T11:12:01.063Z,7.39
2022-11-28T11:12:59.230Z,7.91
2022-11-28T11:13:59.145Z,7.50
2022-11-28T11:15:20.565Z,7.64
2022-11-28T11:16:22.874Z,7.41
2022-11-28T11:17:39.253Z,7.56
2022-11-28T11:18:56.359Z,7.54
2022-11-28T11:19:53.928Z,7.37
2022-11-28T11:21:09.215Z,7.64
2022-11-28T11:22:31.034Z,7.79
2022-11-28T11:23:43.140Z,7.23
2022-11-28T11:25:20.294Z,8.07
2022-11-28T11:26:36.866Z,8.06
2022-11-28T11:27:37.466Z,8.36
2022-11-28T11:28:47.210Z,8.02
2022-11-28T11:29:50.236Z,8.57
2022-11-28T11:31:03.094Z,7.84
2022-11-28T11:32:03.656Z,7.63
2022-11-28T11:33:09.078Z,7.96
2022-11-28T11:34:15.525Z,7.43
2022-11-28T11:35:41.868Z,6.94
2022-11-28T11:36:38.661Z,8.01
2022-11-28T11:37:39.131Z,8.08
2022-11-28T11:38:37.938Z,7.80
2022-11-28T11:39:48.705Z,6.89
2022-11-28T11:40:45.597Z,7.14
2022-11-28T11:41:45.485Z,7.90
2022-11-28T11:42:58.862Z,7.94
2022-11-28T11:43:56.952Z,7.28
2022-11-28T11:44:55.308Z,6.92
2022-11-28T11:46:12.362Z,7.34
2022-11-28T11:47:15.973Z,7.37
2022-11-28T11:48:15.879Z,7.31
2022-11-28T11:49:48.276Z,7.49
2022-11-28T11:50:56.672Z,7.13
2022-11-28T11:52:00.183Z,6.73
2022-11-28T11:53:10.434Z,6.84
2022-11-28T11:54:12.952Z,7.45
2022-11-28T11:55:16.565Z,7.36
2022-11-28T11:56:15.531Z,6.80
2022-11-28T11:57:32.406Z,6.82
2022-11-28T11:58:49.796Z,7.22
2022-11-28T11:59:54.463Z,7.11
2022-11-28T12:00:57.611Z,7.19
2022-11-28T12:02:26.537Z,7.14
2022-11-28T12:04:23.625Z,6.76
2022-11-28T12:05:46.415Z,7.24
2022-11-28T12:06:52.572Z,6.88
2022-11-28T12:08:02.763Z,6.93
2022-11-28T12:09:08.756Z,6.64
2022-11-28T12:10:20.211Z,7.05
2022-11-28T12:11:23.556Z,6.69
2022-11-28T12:12:27.623Z,7.28
2022-11-28T12:13:25.064Z,6.73
2022-11-28T12:14:35.154Z,6.88
2022-11-28T12:16:06.029Z,6.47
2022-11-28T12:17:47.351Z,7.03
2022-11-28T12:19:13.009Z,6.81
2022-11-28T12:20:39.820Z,6.75
2022-11-28T12:22:04.481Z,6.58
2022-11-28T12:23:50.992Z,6.75
2022-11-28T12:24:52.287Z,7.12
2022-11-28T12:25:58.834Z,7.17
2022-11-28T12:27:04.335Z,7.27
2022-11-28T12:28:22.265Z,7.15
2022-11-28T12:29:42.010Z,7.00
2022-11-28T12:30:54.223Z,6.62
2022-11-28T12:32:36.099Z,7.19
2022-11-28T12:33:54.907Z,6.42
2022-11-28T12:35:19.161Z,6.56
2022-11-28T12:36:18.552Z,6.99
2022-11-28T12:37:23.205Z,7.33
2022-11-28T12:38:59.969Z,7.12
2022-11-28T12:40:47.899Z,7.18
2022-11-28T12:41:48.775Z,7.37
2022-11-28T12:43:16.054Z,7.06
2022-11-28T12:44:51.331Z,7.26
2022-11-28T12:46:28.933Z,7.35
2022-11-28T12:47:34.532Z,7.55
2022-11-28T12:48:48.782Z,7.67
2022-11-28T12:50:08.343Z,7.61
2022-11-28T12:51:34.229Z,7.75
2022-11-28T12:52:50.003Z,7.94
2022-11-28T12:54:21.884Z,7.87
2022-11-28T12:55:33.589Z,7.77
2022-11-28T12:56:59.664Z,7.42
2022-11-28T12:58:07.144Z,7.86
2022-11-28T12:59:21.450Z,7.00
2022-11-28T13:00:26.333Z,7.42
2022-11-28T13:01:29.061Z,7.13
2022-11-28T13:02:52.624Z,6.96
2022-11-28T13:04:01.789Z,7.17
2022-11-28T13:05:22.879Z,6.74
2022-11-28T13:06:48.578Z,6.55
2022-11-28T13:08:03.814Z,7.10
2022-11-28T13:09:16.918Z,7.34
2022-11-28T13:10:22.792Z,6.88
2022-11-28T13:11:40.787Z,6.76
2022-11-28T13:13:20.981Z,6.92
2022-11-28T13:14:20.734Z,7.32
2022-11-28T13:15:55.301Z,7.24
2022-11-28T13:16:56.323Z,7.19
2022-11-28T13:18:02.234Z,7.40
2022-11-28T13:19:12.016Z,6.97
2022-11-28T13:20:24.806Z,6.86
2022-11-28T13:21:53.591Z,7.04
2022-11-28T13:23:02.304Z,7.03
2022-11-28T13:24:11.226Z,6.76
2022-11-28T13:25:13.825Z,6.75
2022-11-28T13:26:16.150Z,6.59
2022-11-28T13:27:34.026Z,6.71
2022-11-28T13:28:44.797Z,6.23
2022-11-28T13:30:22.235Z,6.67
2022-11-28T13:31:43.238Z,6.78
2022-11-28T13:32:46.307Z,6.19
2022-11-28T13:33:45.661Z,6.68
2022-11-28T13:34:43.451Z,5.77
2022-11-28T13:35:45.569Z,6.66
2022-11-28T13:38:58.732Z,6.83
2022-11-28T13:40:28.343Z,6.63
2022-11-28T13:42:16.250Z,7.29
2022-11-28T13:43:46.548Z,7.40
2022-11-28T13:45:32.180Z,7.09
2022-11-28T13:46:31.207Z,6.22
2022-11-28T13:47:32.706Z,7.04
2022-11-28T13:50:08.224Z,7.33
2022-11-28T13:51:31.481Z,7.04
2022-11-28T13:52:31.648Z,7.13
2022-11-28T13:53:28.889Z,6.44
2022-11-28T13:54:25.748Z,6.86
2022-11-28T13:55:38.197Z,6.89
2022-11-28T13:56:35.275Z,6.75
2022-11-28T13:57:39.855Z,6.80
2022-11-28T13:58:57.178Z,7.07
2022-11-28T14:00:04.478Z,6.52
2022-11-28T14:01:14.746Z,6.96
2022-11-28T14:02:43.230Z,6.31
2022-11-28T14:03:50.916Z,7.18
2022-11-28T14:04:48.492Z,7.16
2022-11-28T14:05:48.992Z,7.11
2022-11-28T14:06:45.982Z,7.19
2022-11-28T14:07:48.023Z,6.16
2022-11-28T14:08:50.062Z,7.05
2022-11-28T14:10:03.970Z,6.48
2022-11-28T14:11:07.543Z,7.20
2022-11-28T14:12:07.848Z,7.31
2022-11-28T14:13:38.385Z,7.43
2022-11-28T14:14:56.777Z,7.01
2022-11-28T14:15:59.033Z,7.23
2022-11-28T14:17:32.750Z,7.07
2022-11-28T14:18:55.691Z,6.61
2022-11-28T14:20:05.909Z,7.01
2022-11-28T14:21:18.554Z,6.91
2022-11-28T14:22:48.599Z,6.97
2022-11-28T14:24:02.221Z,6.61
2022-11-28T14:25:18.088Z,5.62
2022-11-28T14:26:37.190Z,6.99
2022-11-28T14:27:40.010Z,6.94
2022-11-28T14:28:43.474Z,6.85
2022-11-28T14:29:41.938Z,6.92
2022-11-28T14:30:45.646Z,5.91
2022-11-28T14:32:06.604Z,6.80
2022-11-28T14:33:32.127Z,6.76
2022-11-28T14:34:43.889Z,6.60
2022-11-28T14:35:52.671Z,6.84
2022-11-28T14:37:09.521Z,5.94
2022-11-28T14:38:35.367Z,6.59
2022-11-28T14:39:37.110Z,6.63
2022-11-28T14:40:58.243Z,7.25
2022-11-28T14:42:04.296Z,6.64
2022-11-28T14:43:32.304Z,6.92